sensor_id;sensor_type;location;lat;lon;timestamp;P1;durP1;ratioP1;P2;durP2;ratioP2
56810;SDS011;42691;47.234;27.494;2022-11-15T00:00:33;19.73;;;17.35;;
56810;SDS011;42691;47.234;27.494;2022-11-15T00:02:59;27.27;;;20.38;;
56810;SDS011;42691;47.234;27.494;2022-11-15T00:05:24;22.05;;;19.58;;
56810;SDS011;42691;47.234;27.494;2022-11-15T00:07:50;24.95;;;18.10;;
56810;SDS011;42691;47.234;27.494;2022-11-15T00:10:16;27.95;;;19.80;;
56810;SDS011;42691;47.234;27.494;2022-11-15T00:12:41;22.45;;;19.38;;
56810;SDS011;42691;47.234;27.494;2022-11-15T00:15:07;22.02;;;16.15;;
56810;SDS011;42691;47.234;27.494;2022-11-15T00:17:33;19.65;;;17.60;;
56810;SDS011;42691;47.234;27.494;2022-11-15T00:19:58;21.05;;;17.83;;
56810;SDS011;42691;47.234;27.494;2022-11-15T00:22:24;24.02;;;17.10;;
56810;SDS011;42691;47.234;27.494;2022-11-15T00:24:49;26.42;;;19.75;;
56810;SDS011;42691;47.234;27.494;2022-11-15T00:27:14;23.33;;;17.83;;
56810;SDS011;42691;47.234;27.494;2022-11-15T00:29:40;26.48;;;19.42;;
56810;SDS011;42691;47.234;27.494;2022-11-15T00:32:11;21.38;;;18.08;;
56810;SDS011;42691;47.234;27.494;2022-11-15T00:34:36;21.90;;;19.67;;
56810;SDS011;42691;47.234;27.494;2022-11-15T00:37:02;25.55;;;19.08;;
56810;SDS011;42691;47.234;27.494;2022-11-15T00:39:27;24.95;;;16.00;;
56810;SDS011;42691;47.234;27.494;2022-11-15T00:41:52;23.40;;;19.75;;
56810;SDS011;42691;47.234;27.494;2022-11-15T00:44:18;26.33;;;19.13;;
56810;SDS011;42691;47.234;27.494;2022-11-15T00:46:43;20.05;;;16.50;;
56810;SDS011;42691;47.234;27.494;2022-11-15T00:49:09;22.20;;;18.20;;
56810;SDS011;42691;47.234;27.494;2022-11-15T00:51:34;24.13;;;20.60;;
56810;SDS011;42691;47.234;27.494;2022-11-15T00:54:00;40.58;;;17.63;;
56810;SDS011;42691;47.234;27.494;2022-11-15T00:56:26;20.73;;;17.80;;
56810;SDS011;42691;47.234;27.494;2022-11-15T00:58:52;23.48;;;19.52;;
56810;SDS011;42691;47.234;27.494;2022-11-15T01:01:17;19.05;;;16.40;;
56810;SDS011;42691;47.234;27.494;2022-11-15T01:03:43;26.08;;;15.18;;
56810;SDS011;42691;47.234;27.494;2022-11-15T01:06:09;20.75;;;18.05;;
56810;SDS011;42691;47.234;27.494;2022-11-15T01:08:34;22.38;;;17.65;;
56810;SDS011;42691;47.234;27.494;2022-11-15T01:11:01;21.15;;;18.75;;
56810;SDS011;42691;47.234;27.494;2022-11-15T01:13:32;24.73;;;19.58;;
56810;SDS011;42691;47.234;27.494;2022-11-15T01:15:58;26.23;;;18.00;;
56810;SDS011;42691;47.234;27.494;2022-11-15T01:18:30;23.13;;;20.23;;
56810;SDS011;42691;47.234;27.494;2022-11-15T01:20:55;22.00;;;18.30;;
56810;SDS011;42691;47.234;27.494;2022-11-15T01:23:20;21.00;;;18.17;;
56810;SDS011;42691;47.234;27.494;2022-11-15T01:25:46;23.65;;;18.67;;
56810;SDS011;42691;47.234;27.494;2022-11-15T01:28:11;22.38;;;20.17;;
56810;SDS011;42691;47.234;27.494;2022-11-15T01:30:37;22.17;;;17.05;;
56810;SDS011;42691;47.234;27.494;2022-11-15T01:33:02;23.83;;;19.02;;
56810;SDS011;42691;47.234;27.494;2022-11-15T01:35:28;22.73;;;17.85;;
56810;SDS011;42691;47.234;27.494;2022-11-15T01:37:53;24.48;;;19.30;;
56810;SDS011;42691;47.234;27.494;2022-11-15T01:40:18;26.75;;;19.08;;
56810;SDS011;42691;47.234;27.494;2022-11-15T01:42:44;26.05;;;22.27;;
56810;SDS011;42691;47.234;27.494;2022-11-15T01:45:13;19.63;;;17.08;;
56810;SDS011;42691;47.234;27.494;2022-11-15T01:47:41;25.08;;;19.25;;
56810;SDS011;42691;47.234;27.494;2022-11-15T01:50:14;25.98;;;16.88;;
56810;SDS011;42691;47.234;27.494;2022-11-15T01:52:42;30.65;;;17.65;;
56810;SDS011;42691;47.234;27.494;2022-11-15T01:55:16;25.83;;;20.15;;
56810;SDS011;42691;47.234;27.494;2022-11-15T01:57:46;22.55;;;19.60;;
56810;SDS011;42691;47.234;27.494;2022-11-15T02:00:14;21.92;;;19.65;;
56810;SDS011;42691;47.234;27.494;2022-11-15T02:02:40;25.33;;;17.20;;
56810;SDS011;42691;47.234;27.494;2022-11-15T02:05:06;21.95;;;19.58;;
56810;SDS011;42691;47.234;27.494;2022-11-15T02:07:32;20.30;;;17.63;;
56810;SDS011;42691;47.234;27.494;2022-11-15T02:10:02;21.92;;;17.33;;
56810;SDS011;42691;47.234;27.494;2022-11-15T02:12:33;22.75;;;17.63;;
56810;SDS011;42691;47.234;27.494;2022-11-15T02:14:59;20.52;;;17.00;;
56810;SDS011;42691;47.234;27.494;2022-11-15T02:17:32;21.40;;;17.13;;
56810;SDS011;42691;47.234;27.494;2022-11-15T02:23:10;23.05;;;20.65;;
56810;SDS011;42691;47.234;27.494;2022-11-15T02:29:15;25.05;;;18.00;;
56810;SDS011;42691;47.234;27.494;2022-11-15T02:42:49;23.45;;;18.25;;
56810;SDS011;42691;47.234;27.494;2022-11-15T02:45:41;26.35;;;21.20;;
56810;SDS011;42691;47.234;27.494;2022-11-15T02:48:11;23.13;;;18.70;;
56810;SDS011;42691;47.234;27.494;2022-11-15T02:50:38;25.92;;;19.90;;
56810;SDS011;42691;47.234;27.494;2022-11-15T02:53:03;22.85;;;17.20;;
56810;SDS011;42691;47.234;27.494;2022-11-15T02:55:31;23.90;;;18.15;;
56810;SDS011;42691;47.234;27.494;2022-11-15T03:04:46;26.25;;;21.42;;
56810;SDS011;42691;47.234;27.494;2022-11-15T03:12:04;18.45;;;16.58;;
56810;SDS011;42691;47.234;27.494;2022-11-15T03:14:47;25.30;;;16.92;;
56810;SDS011;42691;47.234;27.494;2022-11-15T03:17:26;24.08;;;19.67;;
56810;SDS011;42691;47.234;27.494;2022-11-15T03:19:56;27.02;;;17.50;;
56810;SDS011;42691;47.234;27.494;2022-11-15T03:22:24;24.52;;;18.75;;
56810;SDS011;42691;47.234;27.494;2022-11-15T03:24:57;23.33;;;18.40;;
56810;SDS011;42691;47.234;27.494;2022-11-15T03:27:28;22.10;;;18.05;;
56810;SDS011;42691;47.234;27.494;2022-11-15T03:30:00;23.77;;;19.13;;
56810;SDS011;42691;47.234;27.494;2022-11-15T03:32:30;22.85;;;18.10;;
56810;SDS011;42691;47.234;27.494;2022-11-15T03:35:18;20.98;;;17.67;;
56810;SDS011;42691;47.234;27.494;2022-11-15T03:40:33;22.30;;;18.23;;
56810;SDS011;42691;47.234;27.494;2022-11-15T03:45:55;19.00;;;16.17;;
56810;SDS011;42691;47.234;27.494;2022-11-15T03:48:27;21.15;;;16.25;;
56810;SDS011;42691;47.234;27.494;2022-11-15T03:50:59;23.35;;;18.75;;
56810;SDS011;42691;47.234;27.494;2022-11-15T03:53:24;20.35;;;16.25;;
56810;SDS011;42691;47.234;27.494;2022-11-15T03:55:50;23.38;;;19.20;;
56810;SDS011;42691;47.234;27.494;2022-11-15T03:58:15;19.45;;;16.42;;
56810;SDS011;42691;47.234;27.494;2022-11-15T04:00:41;25.02;;;16.58;;
56810;SDS011;42691;47.234;27.494;2022-11-15T04:03:06;22.45;;;17.88;;
56810;SDS011;42691;47.234;27.494;2022-11-15T04:05:33;20.10;;;16.60;;
56810;SDS011;42691;47.234;27.494;2022-11-15T04:07:58;25.38;;;16.83;;
56810;SDS011;42691;47.234;27.494;2022-11-15T04:10:24;25.45;;;19.33;;
56810;SDS011;42691;47.234;27.494;2022-11-15T04:12:49;24.77;;;18.27;;
56810;SDS011;42691;47.234;27.494;2022-11-15T04:15:16;22.73;;;17.88;;
56810;SDS011;42691;47.234;27.494;2022-11-15T04:22:58;18.00;;;14.52;;
56810;SDS011;42691;47.234;27.494;2022-11-15T04:25:43;21.65;;;16.88;;
56810;SDS011;42691;47.234;27.494;2022-11-15T04:28:10;25.33;;;20.25;;
56810;SDS011;42691;47.234;27.494;2022-11-15T04:30:36;19.65;;;17.17;;
56810;SDS011;42691;47.234;27.494;2022-11-15T04:33:02;20.35;;;15.90;;
56810;SDS011;42691;47.234;27.494;2022-11-15T04:35:27;21.08;;;16.25;;
56810;SDS011;42691;47.234;27.494;2022-11-15T04:37:54;22.35;;;16.58;;
56810;SDS011;42691;47.234;27.494;2022-11-15T04:40:21;20.27;;;17.77;;
56810;SDS011;42691;47.234;27.494;2022-11-15T04:42:46;21.80;;;19.42;;
56810;SDS011;42691;47.234;27.494;2022-11-15T04:45:11;22.27;;;15.85;;
56810;SDS011;42691;47.234;27.494;2022-11-15T04:47:37;26.10;;;18.67;;
56810;SDS011;42691;47.234;27.494;2022-11-15T04:50:02;22.58;;;15.15;;
56810;SDS011;42691;47.234;27.494;2022-11-15T04:52:28;36.85;;;21.80;;
56810;SDS011;42691;47.234;27.494;2022-11-15T04:54:54;21.40;;;16.65;;
56810;SDS011;42691;47.234;27.494;2022-11-15T04:57:19;26.00;;;20.63;;
56810;SDS011;42691;47.234;27.494;2022-11-15T04:59:45;44.75;;;27.00;;
56810;SDS011;42691;47.234;27.494;2022-11-15T05:02:10;32.13;;;27.50;;
56810;SDS011;42691;47.234;27.494;2022-11-15T05:04:36;32.38;;;28.20;;
56810;SDS011;42691;47.234;27.494;2022-11-15T05:07:01;31.02;;;25.30;;
56810;SDS011;42691;47.234;27.494;2022-11-15T05:09:29;28.55;;;24.30;;
56810;SDS011;42691;47.234;27.494;2022-11-15T05:11:54;24.85;;;21.02;;
56810;SDS011;42691;47.234;27.494;2022-11-15T05:14:20;29.48;;;23.08;;
56810;SDS011;42691;47.234;27.494;2022-11-15T05:16:45;28.58;;;22.98;;
56810;SDS011;42691;47.234;27.494;2022-11-15T05:19:11;27.02;;;18.17;;
56810;SDS011;42691;47.234;27.494;2022-11-15T05:21:36;21.30;;;15.75;;
56810;SDS011;42691;47.234;27.494;2022-11-15T05:24:02;18.10;;;13.93;;
56810;SDS011;42691;47.234;27.494;2022-11-15T05:26:29;25.33;;;13.57;;
56810;SDS011;42691;47.234;27.494;2022-11-15T05:28:55;22.60;;;16.42;;
56810;SDS011;42691;47.234;27.494;2022-11-15T05:31:22;16.27;;;14.18;;
56810;SDS011;42691;47.234;27.494;2022-11-15T05:33:48;22.88;;;14.48;;
56810;SDS011;42691;47.234;27.494;2022-11-15T05:39:03;21.38;;;15.90;;
56810;SDS011;42691;47.234;27.494;2022-11-15T05:41:50;21.00;;;13.07;;
56810;SDS011;42691;47.234;27.494;2022-11-15T05:44:20;17.70;;;13.68;;
56810;SDS011;42691;47.234;27.494;2022-11-15T05:46:47;17.27;;;13.38;;
56810;SDS011;42691;47.234;27.494;2022-11-15T05:49:19;16.25;;;13.88;;
56810;SDS011;42691;47.234;27.494;2022-11-15T05:51:48;18.40;;;13.48;;
56810;SDS011;42691;47.234;27.494;2022-11-15T05:54:15;15.95;;;11.73;;
56810;SDS011;42691;47.234;27.494;2022-11-15T05:56:41;17.20;;;13.18;;
56810;SDS011;42691;47.234;27.494;2022-11-15T05:59:08;18.23;;;14.50;;
56810;SDS011;42691;47.234;27.494;2022-11-15T06:01:34;16.40;;;12.75;;
56810;SDS011;42691;47.234;27.494;2022-11-15T06:04:00;21.75;;;12.43;;
56810;SDS011;42691;47.234;27.494;2022-11-15T06:06:27;15.48;;;10.73;;
56810;SDS011;42691;47.234;27.494;2022-11-15T06:08:53;25.73;;;12.10;;
56810;SDS011;42691;47.234;27.494;2022-11-15T06:11:18;15.32;;;11.05;;
56810;SDS011;42691;47.234;27.494;2022-11-15T06:13:44;16.13;;;12.85;;
56810;SDS011;42691;47.234;27.494;2022-11-15T06:16:09;16.40;;;11.63;;
56810;SDS011;42691;47.234;27.494;2022-11-15T06:18:35;28.08;;;21.38;;
56810;SDS011;42691;47.234;27.494;2022-11-15T06:21:01;24.52;;;18.42;;
56810;SDS011;42691;47.234;27.494;2022-11-15T06:23:27;19.60;;;12.93;;
56810;SDS011;42691;47.234;27.494;2022-11-15T06:25:53;29.42;;;12.32;;
56810;SDS011;42691;47.234;27.494;2022-11-15T06:28:18;15.48;;;11.77;;
56810;SDS011;42691;47.234;27.494;2022-11-15T06:30:44;14.80;;;10.38;;
56810;SDS011;42691;47.234;27.494;2022-11-15T06:33:10;18.65;;;11.35;;
56810;SDS011;42691;47.234;27.494;2022-11-15T06:35:35;16.23;;;11.77;;
56810;SDS011;42691;47.234;27.494;2022-11-15T06:38:05;15.45;;;10.98;;
56810;SDS011;42691;47.234;27.494;2022-11-15T06:40:34;14.70;;;9.55;;
56810;SDS011;42691;47.234;27.494;2022-11-15T06:43:00;17.42;;;11.35;;
56810;SDS011;42691;47.234;27.494;2022-11-15T06:45:26;13.23;;;11.25;;
56810;SDS011;42691;47.234;27.494;2022-11-15T06:47:52;17.30;;;12.73;;
56810;SDS011;42691;47.234;27.494;2022-11-15T06:50:18;20.48;;;15.07;;
56810;SDS011;42691;47.234;27.494;2022-11-15T06:52:43;17.17;;;11.75;;
56810;SDS011;42691;47.234;27.494;2022-11-15T06:55:09;15.73;;;10.63;;
56810;SDS011;42691;47.234;27.494;2022-11-15T06:57:35;13.77;;;11.07;;
56810;SDS011;42691;47.234;27.494;2022-11-15T07:00:01;11.15;;;9.95;;
56810;SDS011;42691;47.234;27.494;2022-11-15T07:02:27;12.13;;;9.82;;
56810;SDS011;42691;47.234;27.494;2022-11-15T07:04:53;15.10;;;10.13;;
56810;SDS011;42691;47.234;27.494;2022-11-15T07:07:19;15.77;;;9.57;;
56810;SDS011;42691;47.234;27.494;2022-11-15T07:09:44;14.75;;;11.20;;
56810;SDS011;42691;47.234;27.494;2022-11-15T07:12:10;13.80;;;9.27;;
56810;SDS011;42691;47.234;27.494;2022-11-15T07:14:35;14.45;;;10.93;;
56810;SDS011;42691;47.234;27.494;2022-11-15T07:17:03;12.90;;;10.00;;
56810;SDS011;42691;47.234;27.494;2022-11-15T07:19:29;18.50;;;9.55;;
56810;SDS011;42691;47.234;27.494;2022-11-15T07:21:54;13.65;;;9.73;;
56810;SDS011;42691;47.234;27.494;2022-11-15T07:24:20;11.43;;;10.20;;
56810;SDS011;42691;47.234;27.494;2022-11-15T07:26:45;16.88;;;10.43;;
56810;SDS011;42691;47.234;27.494;2022-11-15T07:29:11;15.88;;;9.68;;
56810;SDS011;42691;47.234;27.494;2022-11-15T07:31:36;18.23;;;10.40;;
56810;SDS011;42691;47.234;27.494;2022-11-15T07:34:02;14.30;;;8.77;;
56810;SDS011;42691;47.234;27.494;2022-11-15T07:36:27;11.55;;;8.32;;
56810;SDS011;42691;47.234;27.494;2022-11-15T07:38:53;14.05;;;8.82;;
56810;SDS011;42691;47.234;27.494;2022-11-15T07:41:18;14.57;;;9.15;;
56810;SDS011;42691;47.234;27.494;2022-11-15T07:43:44;11.30;;;8.82;;
56810;SDS011;42691;47.234;27.494;2022-11-15T07:46:09;18.48;;;11.30;;
56810;SDS011;42691;47.234;27.494;2022-11-15T07:48:35;12.32;;;8.85;;
56810;SDS011;42691;47.234;27.494;2022-11-15T07:51:02;11.93;;;6.75;;
56810;SDS011;42691;47.234;27.494;2022-11-15T07:53:27;12.50;;;9.20;;
56810;SDS011;42691;47.234;27.494;2022-11-15T07:55:53;11.18;;;6.85;;
56810;SDS011;42691;47.234;27.494;2022-11-15T07:58:18;10.45;;;6.82;;
56810;SDS011;42691;47.234;27.494;2022-11-15T08:00:44;11.10;;;7.07;;
56810;SDS011;42691;47.234;27.494;2022-11-15T08:03:11;9.50;;;6.60;;
56810;SDS011;42691;47.234;27.494;2022-11-15T08:05:38;16.27;;;8.50;;
56810;SDS011;42691;47.234;27.494;2022-11-15T08:08:05;13.68;;;8.45;;
56810;SDS011;42691;47.234;27.494;2022-11-15T08:10:31;9.85;;;7.28;;
56810;SDS011;42691;47.234;27.494;2022-11-15T08:13:05;13.10;;;7.18;;
56810;SDS011;42691;47.234;27.494;2022-11-15T08:15:33;12.68;;;8.68;;
56810;SDS011;42691;47.234;27.494;2022-11-15T08:18:01;8.88;;;6.15;;
56810;SDS011;42691;47.234;27.494;2022-11-15T08:20:29;9.23;;;6.28;;
56810;SDS011;42691;47.234;27.494;2022-11-15T08:22:58;8.30;;;5.80;;
56810;SDS011;42691;47.234;27.494;2022-11-15T08:25:26;13.70;;;8.48;;
56810;SDS011;42691;47.234;27.494;2022-11-15T08:27:53;13.88;;;7.05;;
56810;SDS011;42691;47.234;27.494;2022-11-15T08:30:19;8.10;;;6.10;;
56810;SDS011;42691;47.234;27.494;2022-11-15T08:32:45;12.68;;;6.45;;
56810;SDS011;42691;47.234;27.494;2022-11-15T08:35:11;9.15;;;6.47;;
56810;SDS011;42691;47.234;27.494;2022-11-15T08:37:36;11.65;;;7.88;;
56810;SDS011;42691;47.234;27.494;2022-11-15T08:40:02;11.48;;;7.35;;
56810;SDS011;42691;47.234;27.494;2022-11-15T08:42:28;11.40;;;6.25;;
56810;SDS011;42691;47.234;27.494;2022-11-15T08:44:54;11.55;;;6.43;;
56810;SDS011;42691;47.234;27.494;2022-11-15T08:47:19;10.05;;;4.32;;
56810;SDS011;42691;47.234;27.494;2022-11-15T08:49:44;9.50;;;5.82;;
56810;SDS011;42691;47.234;27.494;2022-11-15T08:52:10;9.25;;;5.65;;
56810;SDS011;42691;47.234;27.494;2022-11-15T08:54:35;10.20;;;5.45;;
56810;SDS011;42691;47.234;27.494;2022-11-15T08:57:01;11.48;;;6.43;;
56810;SDS011;42691;47.234;27.494;2022-11-15T08:59:26;10.90;;;6.20;;
56810;SDS011;42691;47.234;27.494;2022-11-15T09:01:51;7.45;;;4.30;;
56810;SDS011;42691;47.234;27.494;2022-11-15T09:04:17;7.63;;;5.13;;
56810;SDS011;42691;47.234;27.494;2022-11-15T09:06:42;9.57;;;6.25;;
56810;SDS011;42691;47.234;27.494;2022-11-15T09:09:08;10.85;;;5.78;;
56810;SDS011;42691;47.234;27.494;2022-11-15T09:11:33;7.68;;;5.80;;
56810;SDS011;42691;47.234;27.494;2022-11-15T09:13:59;6.05;;;5.45;;
56810;SDS011;42691;47.234;27.494;2022-11-15T09:16:24;7.72;;;5.53;;
56810;SDS011;42691;47.234;27.494;2022-11-15T09:18:50;8.73;;;4.85;;
56810;SDS011;42691;47.234;27.494;2022-11-15T09:21:15;6.65;;;5.18;;
56810;SDS011;42691;47.234;27.494;2022-11-15T09:23:41;8.98;;;5.13;;
56810;SDS011;42691;47.234;27.494;2022-11-15T09:26:06;7.72;;;5.70;;
56810;SDS011;42691;47.234;27.494;2022-11-15T09:28:32;7.78;;;4.80;;
56810;SDS011;42691;47.234;27.494;2022-11-15T09:30:59;8.65;;;5.68;;
56810;SDS011;42691;47.234;27.494;2022-11-15T09:33:26;8.30;;;4.07;;
56810;SDS011;42691;47.234;27.494;2022-11-15T09:35:52;5.53;;;4.57;;
56810;SDS011;42691;47.234;27.494;2022-11-15T09:38:18;9.43;;;4.78;;
56810;SDS011;42691;47.234;27.494;2022-11-15T09:40:44;10.15;;;5.85;;
56810;SDS011;42691;47.234;27.494;2022-11-15T09:49:01;16.48;;;7.63;;
56810;SDS011;42691;47.234;27.494;2022-11-15T09:51:29;7.70;;;4.40;;
56810;SDS011;42691;47.234;27.494;2022-11-15T09:56:24;8.18;;;3.28;;
56810;SDS011;42691;47.234;27.494;2022-11-15T10:04:22;8.85;;;4.95;;
56810;SDS011;42691;47.234;27.494;2022-11-15T10:06:54;8.43;;;4.95;;
56810;SDS011;42691;47.234;27.494;2022-11-15T10:09:38;6.25;;;4.90;;
56810;SDS011;42691;47.234;27.494;2022-11-15T10:12:12;5.90;;;4.60;;
56810;SDS011;42691;47.234;27.494;2022-11-15T10:14:39;7.40;;;5.88;;
56810;SDS011;42691;47.234;27.494;2022-11-15T10:17:08;24.17;;;7.70;;
56810;SDS011;42691;47.234;27.494;2022-11-15T10:20:17;7.50;;;5.90;;
56810;SDS011;42691;47.234;27.494;2022-11-15T10:22:48;10.27;;;5.45;;
56810;SDS011;42691;47.234;27.494;2022-11-15T10:25:18;8.85;;;4.20;;
56810;SDS011;42691;47.234;27.494;2022-11-15T10:30:22;13.55;;;7.20;;
56810;SDS011;42691;47.234;27.494;2022-11-15T10:32:54;6.65;;;4.32;;
56810;SDS011;42691;47.234;27.494;2022-11-15T10:35:21;9.38;;;5.50;;
56810;SDS011;42691;47.234;27.494;2022-11-15T10:37:52;9.85;;;6.40;;
56810;SDS011;42691;47.234;27.494;2022-11-15T10:40:30;7.32;;;6.05;;
56810;SDS011;42691;47.234;27.494;2022-11-15T10:45:41;17.52;;;5.32;;
56810;SDS011;42691;47.234;27.494;2022-11-15T10:50:43;11.07;;;5.78;;
56810;SDS011;42691;47.234;27.494;2022-11-15T10:56:05;9.38;;;4.28;;
56810;SDS011;42691;47.234;27.494;2022-11-15T10:58:35;9.00;;;6.38;;
56810;SDS011;42691;47.234;27.494;2022-11-15T11:01:13;7.43;;;5.22;;
56810;SDS011;42691;47.234;27.494;2022-11-15T11:03:39;10.93;;;6.95;;
56810;SDS011;42691;47.234;27.494;2022-11-15T11:08:40;7.78;;;4.60;;
56810;SDS011;42691;47.234;27.494;2022-11-15T11:14:12;7.68;;;4.97;;
56810;SDS011;42691;47.234;27.494;2022-11-15T11:16:44;9.98;;;4.88;;
56810;SDS011;42691;47.234;27.494;2022-11-15T11:19:35;20.15;;;6.28;;
56810;SDS011;42691;47.234;27.494;2022-11-15T11:33:33;10.65;;;6.38;;
56810;SDS011;42691;47.234;27.494;2022-11-15T11:41:20;12.98;;;8.20;;
56810;SDS011;42691;47.234;27.494;2022-11-15T11:52:23;9.80;;;6.85;;
56810;SDS011;42691;47.234;27.494;2022-11-15T11:58:03;9.70;;;5.88;;
56810;SDS011;42691;47.234;27.494;2022-11-15T12:00:51;18.08;;;8.13;;
56810;SDS011;42691;47.234;27.494;2022-11-15T12:03:38;13.05;;;6.95;;
56810;SDS011;42691;47.234;27.494;2022-11-15T12:14:52;8.00;;;5.93;;
56810;SDS011;42691;47.234;27.494;2022-11-15T12:17:37;9.90;;;5.70;;
56810;SDS011;42691;47.234;27.494;2022-11-15T12:20:15;8.43;;;5.03;;
56810;SDS011;42691;47.234;27.494;2022-11-15T12:28:50;6.95;;;5.70;;
56810;SDS011;42691;47.234;27.494;2022-11-15T12:31:20;10.90;;;6.10;;
56810;SDS011;42691;47.234;27.494;2022-11-15T12:33:54;13.55;;;6.95;;
56810;SDS011;42691;47.234;27.494;2022-11-15T13:17:51;16.55;;;10.90;;
56810;SDS011;42691;47.234;27.494;2022-11-15T13:20:27;15.13;;;9.10;;
56810;SDS011;42691;47.234;27.494;2022-11-15T13:23:02;15.90;;;8.40;;
56810;SDS011;42691;47.234;27.494;2022-11-15T13:30:54;15.80;;;11.93;;
56810;SDS011;42691;47.234;27.494;2022-11-15T13:35:56;20.17;;;15.43;;
56810;SDS011;42691;47.234;27.494;2022-11-15T13:40:49;21.95;;;13.20;;
56810;SDS011;42691;47.234;27.494;2022-11-15T13:48:43;23.80;;;17.45;;
56810;SDS011;42691;47.234;27.494;2022-11-15T13:53:53;22.77;;;16.75;;
56810;SDS011;42691;47.234;27.494;2022-11-15T13:56:23;34.78;;;20.00;;
56810;SDS011;42691;47.234;27.494;2022-11-15T13:58:51;28.23;;;21.45;;
56810;SDS011;42691;47.234;27.494;2022-11-15T14:01:19;33.22;;;18.45;;
56810;SDS011;42691;47.234;27.494;2022-11-15T14:03:47;34.75;;;23.15;;
56810;SDS011;42691;47.234;27.494;2022-11-15T14:06:20;30.40;;;20.92;;
56810;SDS011;42691;47.234;27.494;2022-11-15T14:11:32;25.87;;;22.13;;
56810;SDS011;42691;47.234;27.494;2022-11-15T14:16:44;31.33;;;22.75;;
56810;SDS011;42691;47.234;27.494;2022-11-15T14:19:13;35.17;;;20.13;;
56810;SDS011;42691;47.234;27.494;2022-11-15T14:24:38;34.90;;;25.05;;
56810;SDS011;42691;47.234;27.494;2022-11-15T14:27:21;34.53;;;25.65;;
56810;SDS011;42691;47.234;27.494;2022-11-15T14:29:52;31.13;;;23.98;;
56810;SDS011;42691;47.234;27.494;2022-11-15T14:32:19;33.53;;;22.38;;
56810;SDS011;42691;47.234;27.494;2022-11-15T14:34:47;41.50;;;25.08;;
56810;SDS011;42691;47.234;27.494;2022-11-15T14:39:43;29.92;;;21.50;;
56810;SDS011;42691;47.234;27.494;2022-11-15T14:42:09;44.30;;;28.15;;
56810;SDS011;42691;47.234;27.494;2022-11-15T14:44:34;30.67;;;25.08;;
56810;SDS011;42691;47.234;27.494;2022-11-15T14:47:00;34.50;;;27.40;;
56810;SDS011;42691;47.234;27.494;2022-11-15T14:49:25;44.38;;;31.75;;
56810;SDS011;42691;47.234;27.494;2022-11-15T14:51:51;41.47;;;25.70;;
56810;SDS011;42691;47.234;27.494;2022-11-15T14:54:16;36.60;;;25.45;;
56810;SDS011;42691;47.234;27.494;2022-11-15T14:56:41;38.70;;;26.27;;
56810;SDS011;42691;47.234;27.494;2022-11-15T14:59:07;37.92;;;27.00;;
56810;SDS011;42691;47.234;27.494;2022-11-15T15:01:33;40.60;;;24.60;;
56810;SDS011;42691;47.234;27.494;2022-11-15T15:03:58;35.15;;;26.85;;
56810;SDS011;42691;47.234;27.494;2022-11-15T15:06:24;42.45;;;22.15;;
56810;SDS011;42691;47.234;27.494;2022-11-15T15:08:50;40.70;;;26.65;;
56810;SDS011;42691;47.234;27.494;2022-11-15T15:11:21;41.72;;;25.13;;
56810;SDS011;42691;47.234;27.494;2022-11-15T15:13:48;35.65;;;25.60;;
56810;SDS011;42691;47.234;27.494;2022-11-15T15:16:14;29.10;;;23.33;;
56810;SDS011;42691;47.234;27.494;2022-11-15T15:18:39;31.08;;;22.42;;
56810;SDS011;42691;47.234;27.494;2022-11-15T15:21:12;34.90;;;30.05;;
56810;SDS011;42691;47.234;27.494;2022-11-15T15:23:43;30.23;;;22.52;;
56810;SDS011;42691;47.234;27.494;2022-11-15T15:26:08;32.33;;;24.20;;
56810;SDS011;42691;47.234;27.494;2022-11-15T15:28:34;33.22;;;23.55;;
56810;SDS011;42691;47.234;27.494;2022-11-15T15:31:00;36.80;;;23.70;;
56810;SDS011;42691;47.234;27.494;2022-11-15T15:33:26;36.55;;;25.55;;
56810;SDS011;42691;47.234;27.494;2022-11-15T15:35:51;31.45;;;24.70;;
56810;SDS011;42691;47.234;27.494;2022-11-15T15:38:17;32.85;;;25.67;;
56810;SDS011;42691;47.234;27.494;2022-11-15T15:40:42;47.47;;;29.30;;
56810;SDS011;42691;47.234;27.494;2022-11-15T15:43:08;34.33;;;25.33;;
56810;SDS011;42691;47.234;27.494;2022-11-15T15:45:34;32.78;;;25.17;;
56810;SDS011;42691;47.234;27.494;2022-11-15T15:48:02;38.85;;;23.00;;
56810;SDS011;42691;47.234;27.494;2022-11-15T15:50:29;40.90;;;23.02;;
56810;SDS011;42691;47.234;27.494;2022-11-15T15:52:59;46.25;;;26.23;;
56810;SDS011;42691;47.234;27.494;2022-11-15T15:55:26;32.97;;;25.30;;
56810;SDS011;42691;47.234;27.494;2022-11-15T15:57:52;30.80;;;23.50;;
56810;SDS011;42691;47.234;27.494;2022-11-15T16:00:18;37.42;;;23.35;;
56810;SDS011;42691;47.234;27.494;2022-11-15T16:02:44;46.35;;;28.13;;
56810;SDS011;42691;47.234;27.494;2022-11-15T16:05:11;33.42;;;25.55;;
56810;SDS011;42691;47.234;27.494;2022-11-15T16:07:37;33.92;;;23.95;;
56810;SDS011;42691;47.234;27.494;2022-11-15T16:10:18;35.42;;;23.10;;
56810;SDS011;42691;47.234;27.494;2022-11-15T16:12:45;31.02;;;22.92;;
56810;SDS011;42691;47.234;27.494;2022-11-15T16:15:11;42.47;;;27.05;;
56810;SDS011;42691;47.234;27.494;2022-11-15T16:17:38;36.13;;;26.90;;
56810;SDS011;42691;47.234;27.494;2022-11-15T16:20:09;28.58;;;24.98;;
56810;SDS011;42691;47.234;27.494;2022-11-15T16:25:16;37.08;;;24.00;;
56810;SDS011;42691;47.234;27.494;2022-11-15T16:27:42;37.30;;;25.83;;
56810;SDS011;42691;47.234;27.494;2022-11-15T16:30:14;40.22;;;25.25;;
56810;SDS011;42691;47.234;27.494;2022-11-15T16:32:41;41.80;;;27.65;;
56810;SDS011;42691;47.234;27.494;2022-11-15T16:35:07;34.17;;;26.63;;
56810;SDS011;42691;47.234;27.494;2022-11-15T16:37:36;42.55;;;25.42;;
56810;SDS011;42691;47.234;27.494;2022-11-15T16:40:02;29.90;;;21.85;;
56810;SDS011;42691;47.234;27.494;2022-11-15T16:42:27;36.47;;;25.20;;
56810;SDS011;42691;47.234;27.494;2022-11-15T16:44:53;34.53;;;25.98;;
56810;SDS011;42691;47.234;27.494;2022-11-15T16:47:18;29.42;;;26.33;;
56810;SDS011;42691;47.234;27.494;2022-11-15T16:49:44;9.65;;;5.30;;
56810;SDS011;42691;47.234;27.494;2022-11-15T16:52:10;31.83;;;21.45;;
56810;SDS011;42691;47.234;27.494;2022-11-15T16:54:36;25.55;;;22.33;;
56810;SDS011;42691;47.234;27.494;2022-11-15T16:57:01;37.17;;;25.50;;
56810;SDS011;42691;47.234;27.494;2022-11-15T16:59:27;42.03;;;20.63;;
56810;SDS011;42691;47.234;27.494;2022-11-15T17:01:53;26.65;;;22.00;;
56810;SDS011;42691;47.234;27.494;2022-11-15T17:04:19;30.73;;;23.52;;
56810;SDS011;42691;47.234;27.494;2022-11-15T17:06:46;37.88;;;23.38;;
56810;SDS011;42691;47.234;27.494;2022-11-15T17:09:16;65.70;;;28.67;;
56810;SDS011;42691;47.234;27.494;2022-11-15T17:11:44;48.55;;;26.00;;
56810;SDS011;42691;47.234;27.494;2022-11-15T17:14:10;76.75;;;29.15;;
56810;SDS011;42691;47.234;27.494;2022-11-15T17:16:36;52.28;;;29.48;;
56810;SDS011;42691;47.234;27.494;2022-11-15T17:19:06;43.55;;;27.00;;
56810;SDS011;42691;47.234;27.494;2022-11-15T17:21:42;28.15;;;23.85;;
56810;SDS011;42691;47.234;27.494;2022-11-15T17:24:08;53.05;;;31.13;;
56810;SDS011;42691;47.234;27.494;2022-11-15T17:26:34;35.38;;;25.15;;